Newagen, Maine
Current Conditions -  °F | °C
As of 9:53 PM on Tuesday 21 Oct 2014 (Local Time) from KIWI Reporting Station
Moderate Rain Moderate Rain  
Wind Chill: 52°   Ceiling: 600
Heat Index: 52°   Visibility: 5mi
Dew Point: 51°   Wind: 5mph
Humidity: 97%   Direction: NA
Pressure: 30.07"   Gusts: NA
Location:  43.79°N, 69.66°W
Report Text: KIWI 220153Z AUTO VRB04KT 5SM RA BR OVC006 11/11 A3007 RMK AO2 RAB06 SLP182 P0004 T01110106
Loading
Personal Weather Stations






























Interactive Weather Map
Tropical Storm Tracking
New forecast layout! Learn more

10-Day Weather Forecast

Advertisements
Track Severe Weather on mobile